sensor_id;sensor_type;location;lat;lon;timestamp;P1;durP1;ratioP1;P2;durP2;ratioP2
71236;SDS011;58984;51.960;5.582;2022-08-04T00:02:23;6.93;;;3.70;;
71236;SDS011;58984;51.960;5.582;2022-08-04T00:10:22;4.85;;;3.50;;
71236;SDS011;58984;51.960;5.582;2022-08-04T00:12:51;9.05;;;3.75;;
71236;SDS011;58984;51.960;5.582;2022-08-04T00:15:19;4.03;;;3.42;;
71236;SDS011;58984;51.960;5.582;2022-08-04T00:17:51;4.60;;;3.08;;
71236;SDS011;58984;51.960;5.582;2022-08-04T00:20:20;5.70;;;3.03;;
71236;SDS011;58984;51.960;5.582;2022-08-04T00:22:47;5.35;;;2.90;;
71236;SDS011;58984;51.960;5.582;2022-08-04T00:25:16;3.88;;;2.90;;
71236;SDS011;58984;51.960;5.582;2022-08-04T00:27:41;4.75;;;3.38;;
71236;SDS011;58984;51.960;5.582;2022-08-04T00:30:07;6.13;;;3.25;;
71236;SDS011;58984;51.960;5.582;2022-08-04T00:32:33;7.75;;;3.60;;
71236;SDS011;58984;51.960;5.582;2022-08-04T00:34:59;6.10;;;3.30;;
71236;SDS011;58984;51.960;5.582;2022-08-04T00:37:25;3.60;;;3.00;;
71236;SDS011;58984;51.960;5.582;2022-08-04T00:39:52;7.03;;;3.38;;
71236;SDS011;58984;51.960;5.582;2022-08-04T00:42:33;6.10;;;3.78;;
71236;SDS011;58984;51.960;5.582;2022-08-04T00:47:38;4.63;;;3.25;;
71236;SDS011;58984;51.960;5.582;2022-08-04T00:50:23;6.68;;;3.53;;
71236;SDS011;58984;51.960;5.582;2022-08-04T00:55:44;8.20;;;3.50;;
71236;SDS011;58984;51.960;5.582;2022-08-04T01:09:02;3.22;;;2.78;;
71236;SDS011;58984;51.960;5.582;2022-08-04T01:16:59;5.28;;;3.53;;
71236;SDS011;58984;51.960;5.582;2022-08-04T01:19:51;6.13;;;3.30;;
71236;SDS011;58984;51.960;5.582;2022-08-04T01:25:09;5.05;;;3.35;;
71236;SDS011;58984;51.960;5.582;2022-08-04T01:30:56;4.45;;;3.03;;
71236;SDS011;58984;51.960;5.582;2022-08-04T01:33:26;9.00;;;3.88;;
71236;SDS011;58984;51.960;5.582;2022-08-04T01:35:54;4.70;;;3.28;;
71236;SDS011;58984;51.960;5.582;2022-08-04T01:40:53;5.07;;;3.83;;
71236;SDS011;58984;51.960;5.582;2022-08-04T01:43:21;9.23;;;3.03;;
71236;SDS011;58984;51.960;5.582;2022-08-04T01:45:49;5.80;;;3.53;;
71236;SDS011;58984;51.960;5.582;2022-08-04T01:48:22;4.90;;;3.15;;
71236;SDS011;58984;51.960;5.582;2022-08-04T01:50:49;4.97;;;3.50;;
71236;SDS011;58984;51.960;5.582;2022-08-04T01:53:17;5.03;;;3.17;;
71236;SDS011;58984;51.960;5.582;2022-08-04T01:55:45;6.78;;;3.10;;
71236;SDS011;58984;51.960;5.582;2022-08-04T01:58:14;7.72;;;3.58;;
71236;SDS011;58984;51.960;5.582;2022-08-04T02:00:44;5.85;;;3.67;;
71236;SDS011;58984;51.960;5.582;2022-08-04T02:03:26;6.28;;;4.00;;
71236;SDS011;58984;51.960;5.582;2022-08-04T02:06:03;6.65;;;3.47;;
71236;SDS011;58984;51.960;5.582;2022-08-04T02:08:41;7.35;;;4.03;;
71236;SDS011;58984;51.960;5.582;2022-08-04T02:11:16;4.78;;;3.40;;
71236;SDS011;58984;51.960;5.582;2022-08-04T02:14:01;4.80;;;3.47;;
71236;SDS011;58984;51.960;5.582;2022-08-04T02:16:58;5.80;;;3.35;;
71236;SDS011;58984;51.960;5.582;2022-08-04T02:22:14;4.85;;;3.40;;
71236;SDS011;58984;51.960;5.582;2022-08-04T02:24:45;7.45;;;3.95;;
71236;SDS011;58984;51.960;5.582;2022-08-04T02:27:22;9.32;;;4.25;;
71236;SDS011;58984;51.960;5.582;2022-08-04T02:29:58;5.45;;;3.50;;
71236;SDS011;58984;51.960;5.582;2022-08-04T02:32:27;4.63;;;3.40;;
71236;SDS011;58984;51.960;5.582;2022-08-04T02:34:58;5.90;;;3.60;;
71236;SDS011;58984;51.960;5.582;2022-08-04T02:37:28;5.22;;;3.58;;
71236;SDS011;58984;51.960;5.582;2022-08-04T02:39:55;8.68;;;3.60;;
71236;SDS011;58984;51.960;5.582;2022-08-04T02:42:24;5.88;;;3.65;;
71236;SDS011;58984;51.960;5.582;2022-08-04T02:44:52;7.07;;;3.75;;
71236;SDS011;58984;51.960;5.582;2022-08-04T02:47:22;5.30;;;3.50;;
71236;SDS011;58984;51.960;5.582;2022-08-04T02:49:50;6.10;;;3.25;;
71236;SDS011;58984;51.960;5.582;2022-08-04T02:52:17;6.97;;;3.70;;
71236;SDS011;58984;51.960;5.582;2022-08-04T02:54:44;4.50;;;3.28;;
71236;SDS011;58984;51.960;5.582;2022-08-04T02:57:13;7.97;;;3.75;;
71236;SDS011;58984;51.960;5.582;2022-08-04T02:59:56;4.78;;;3.63;;
71236;SDS011;58984;51.960;5.582;2022-08-04T03:02:33;3.30;;;2.97;;
71236;SDS011;58984;51.960;5.582;2022-08-04T03:05:21;7.13;;;3.50;;
71236;SDS011;58984;51.960;5.582;2022-08-04T03:08:17;7.50;;;3.45;;
71236;SDS011;58984;51.960;5.582;2022-08-04T03:19:28;7.15;;;3.75;;
71236;SDS011;58984;51.960;5.582;2022-08-04T03:30:58;4.63;;;3.40;;
71236;SDS011;58984;51.960;5.582;2022-08-04T03:33:43;5.53;;;3.50;;
71236;SDS011;58984;51.960;5.582;2022-08-04T03:47:17;4.82;;;3.67;;
71236;SDS011;58984;51.960;5.582;2022-08-04T03:52:40;5.18;;;3.70;;
71236;SDS011;58984;51.960;5.582;2022-08-04T04:01:30;9.13;;;3.72;;
71236;SDS011;58984;51.960;5.582;2022-08-04T04:06:43;8.15;;;3.88;;
71236;SDS011;58984;51.960;5.582;2022-08-04T04:09:18;6.18;;;3.75;;
71236;SDS011;58984;51.960;5.582;2022-08-04T04:17:20;7.82;;;4.07;;
71236;SDS011;58984;51.960;5.582;2022-08-04T04:25:28;7.63;;;4.22;;
71236;SDS011;58984;51.960;5.582;2022-08-04T04:42:56;6.55;;;4.00;;
71236;SDS011;58984;51.960;5.582;2022-08-04T04:45:33;5.33;;;3.93;;
71236;SDS011;58984;51.960;5.582;2022-08-04T04:51:07;7.25;;;3.85;;
71236;SDS011;58984;51.960;5.582;2022-08-04T04:56:59;7.05;;;4.10;;
71236;SDS011;58984;51.960;5.582;2022-08-04T04:59:33;5.47;;;3.80;;
71236;SDS011;58984;51.960;5.582;2022-08-04T05:05:02;7.32;;;4.43;;
71236;SDS011;58984;51.960;5.582;2022-08-04T05:16:25;7.93;;;4.22;;
71236;SDS011;58984;51.960;5.582;2022-08-04T05:21:33;7.75;;;4.10;;
71236;SDS011;58984;51.960;5.582;2022-08-04T05:24:02;9.00;;;3.92;;
71236;SDS011;58984;51.960;5.582;2022-08-04T05:26:39;7.35;;;3.85;;
71236;SDS011;58984;51.960;5.582;2022-08-04T05:29:10;7.13;;;4.55;;
71236;SDS011;58984;51.960;5.582;2022-08-04T05:31:41;8.60;;;4.30;;
71236;SDS011;58984;51.960;5.582;2022-08-04T05:34:21;7.35;;;4.40;;
71236;SDS011;58984;51.960;5.582;2022-08-04T05:36:51;8.15;;;4.47;;
71236;SDS011;58984;51.960;5.582;2022-08-04T05:39:21;9.38;;;4.38;;
71236;SDS011;58984;51.960;5.582;2022-08-04T05:41:49;8.10;;;4.20;;
71236;SDS011;58984;51.960;5.582;2022-08-04T05:44:16;8.35;;;3.97;;
71236;SDS011;58984;51.960;5.582;2022-08-04T05:46:44;8.38;;;4.18;;
71236;SDS011;58984;51.960;5.582;2022-08-04T05:49:13;8.57;;;4.00;;
71236;SDS011;58984;51.960;5.582;2022-08-04T05:51:40;7.85;;;4.22;;
71236;SDS011;58984;51.960;5.582;2022-08-04T05:54:07;10.77;;;4.60;;
71236;SDS011;58984;51.960;5.582;2022-08-04T05:56:35;5.50;;;3.75;;
71236;SDS011;58984;51.960;5.582;2022-08-04T05:59:02;6.03;;;3.80;;
71236;SDS011;58984;51.960;5.582;2022-08-04T06:01:29;6.07;;;4.07;;
71236;SDS011;58984;51.960;5.582;2022-08-04T06:03:57;9.88;;;4.00;;
71236;SDS011;58984;51.960;5.582;2022-08-04T06:06:25;8.00;;;4.05;;
71236;SDS011;58984;51.960;5.582;2022-08-04T06:08:51;6.10;;;3.83;;
71236;SDS011;58984;51.960;5.582;2022-08-04T06:11:18;7.90;;;3.83;;
71236;SDS011;58984;51.960;5.582;2022-08-04T06:13:48;5.95;;;3.50;;
71236;SDS011;58984;51.960;5.582;2022-08-04T06:18:45;7.13;;;3.80;;
71236;SDS011;58984;51.960;5.582;2022-08-04T06:21:15;6.13;;;3.83;;
71236;SDS011;58984;51.960;5.582;2022-08-04T06:23:42;5.50;;;3.50;;
71236;SDS011;58984;51.960;5.582;2022-08-04T06:26:09;7.55;;;3.83;;
71236;SDS011;58984;51.960;5.582;2022-08-04T06:28:40;7.03;;;3.75;;
71236;SDS011;58984;51.960;5.582;2022-08-04T06:31:07;5.47;;;3.63;;
71236;SDS011;58984;51.960;5.582;2022-08-04T06:33:33;5.53;;;3.47;;
71236;SDS011;58984;51.960;5.582;2022-08-04T06:36:02;6.40;;;3.50;;
71236;SDS011;58984;51.960;5.582;2022-08-04T06:38:31;6.90;;;3.25;;
71236;SDS011;58984;51.960;5.582;2022-08-04T06:41:00;7.90;;;3.40;;
71236;SDS011;58984;51.960;5.582;2022-08-04T06:43:27;4.13;;;3.20;;
71236;SDS011;58984;51.960;5.582;2022-08-04T06:45:55;6.28;;;3.60;;
71236;SDS011;58984;51.960;5.582;2022-08-04T06:48:23;5.18;;;3.10;;
71236;SDS011;58984;51.960;5.582;2022-08-04T06:50:50;6.45;;;3.60;;
71236;SDS011;58984;51.960;5.582;2022-08-04T06:53:17;4.53;;;3.13;;
71236;SDS011;58984;51.960;5.582;2022-08-04T06:55:43;6.70;;;4.00;;
71236;SDS011;58984;51.960;5.582;2022-08-04T06:58:10;7.47;;;4.07;;
71236;SDS011;58984;51.960;5.582;2022-08-04T07:00:38;6.35;;;3.90;;
71236;SDS011;58984;51.960;5.582;2022-08-04T07:03:06;7.00;;;3.78;;
71236;SDS011;58984;51.960;5.582;2022-08-04T07:05:32;5.13;;;3.45;;
71236;SDS011;58984;51.960;5.582;2022-08-04T07:07:58;4.00;;;3.17;;
71236;SDS011;58984;51.960;5.582;2022-08-04T07:10:26;4.25;;;3.28;;
71236;SDS011;58984;51.960;5.582;2022-08-04T07:12:52;5.47;;;3.72;;
71236;SDS011;58984;51.960;5.582;2022-08-04T07:15:19;4.53;;;3.33;;
71236;SDS011;58984;51.960;5.582;2022-08-04T07:17:45;5.70;;;3.85;;
71236;SDS011;58984;51.960;5.582;2022-08-04T07:20:11;6.38;;;3.80;;
71236;SDS011;58984;51.960;5.582;2022-08-04T07:22:36;4.25;;;3.55;;
71236;SDS011;58984;51.960;5.582;2022-08-04T07:25:07;5.78;;;3.10;;
71236;SDS011;58984;51.960;5.582;2022-08-04T07:27:33;10.60;;;5.28;;
71236;SDS011;58984;51.960;5.582;2022-08-04T07:29:59;11.77;;;6.05;;
71236;SDS011;58984;51.960;5.582;2022-08-04T07:32:25;10.85;;;5.93;;
71236;SDS011;58984;51.960;5.582;2022-08-04T07:34:52;16.38;;;6.97;;
71236;SDS011;58984;51.960;5.582;2022-08-04T07:37:18;12.50;;;6.10;;
71236;SDS011;58984;51.960;5.582;2022-08-04T07:39:43;12.65;;;6.07;;
71236;SDS011;58984;51.960;5.582;2022-08-04T07:42:09;10.68;;;5.93;;
71236;SDS011;58984;51.960;5.582;2022-08-04T07:44:35;9.38;;;5.10;;
71236;SDS011;58984;51.960;5.582;2022-08-04T07:47:03;9.82;;;5.18;;
71236;SDS011;58984;51.960;5.582;2022-08-04T07:49:31;7.65;;;4.60;;
71236;SDS011;58984;51.960;5.582;2022-08-04T07:51:57;9.50;;;4.72;;
71236;SDS011;58984;51.960;5.582;2022-08-04T07:54:24;7.15;;;4.25;;
71236;SDS011;58984;51.960;5.582;2022-08-04T07:56:50;7.82;;;4.40;;
71236;SDS011;58984;51.960;5.582;2022-08-04T07:59:19;6.88;;;4.20;;
71236;SDS011;58984;51.960;5.582;2022-08-04T08:01:44;6.50;;;4.10;;
71236;SDS011;58984;51.960;5.582;2022-08-04T08:04:11;6.90;;;3.28;;
71236;SDS011;58984;51.960;5.582;2022-08-04T08:06:37;8.02;;;3.70;;
71236;SDS011;58984;51.960;5.582;2022-08-04T08:09:12;5.65;;;3.33;;
71236;SDS011;58984;51.960;5.582;2022-08-04T08:11:43;7.93;;;3.55;;
71236;SDS011;58984;51.960;5.582;2022-08-04T08:14:14;6.43;;;3.92;;
71236;SDS011;58984;51.960;5.582;2022-08-04T08:16:40;7.20;;;3.88;;
71236;SDS011;58984;51.960;5.582;2022-08-04T08:19:06;6.78;;;3.55;;
71236;SDS011;58984;51.960;5.582;2022-08-04T08:21:32;6.30;;;3.28;;
71236;SDS011;58984;51.960;5.582;2022-08-04T08:23:58;5.28;;;3.22;;
71236;SDS011;58984;51.960;5.582;2022-08-04T08:26:24;4.88;;;2.90;;
71236;SDS011;58984;51.960;5.582;2022-08-04T08:28:50;8.18;;;3.78;;
71236;SDS011;58984;51.960;5.582;2022-08-04T08:31:16;6.32;;;3.08;;
71236;SDS011;58984;51.960;5.582;2022-08-04T08:33:41;6.00;;;3.05;;
71236;SDS011;58984;51.960;5.582;2022-08-04T08:36:09;7.15;;;3.22;;
71236;SDS011;58984;51.960;5.582;2022-08-04T08:41:20;9.25;;;3.95;;
71236;SDS011;58984;51.960;5.582;2022-08-04T08:47:00;5.93;;;2.85;;
71236;SDS011;58984;51.960;5.582;2022-08-04T08:52:55;6.60;;;3.10;;
71236;SDS011;58984;51.960;5.582;2022-08-04T08:58:43;5.70;;;2.70;;
71236;SDS011;58984;51.960;5.582;2022-08-04T09:04:08;4.13;;;2.72;;
71236;SDS011;58984;51.960;5.582;2022-08-04T09:09:50;5.63;;;2.67;;
71236;SDS011;58984;51.960;5.582;2022-08-04T09:12:32;9.82;;;3.08;;
71236;SDS011;58984;51.960;5.582;2022-08-04T09:15:16;9.02;;;3.47;;
71236;SDS011;58984;51.960;5.582;2022-08-04T09:17:56;6.90;;;3.30;;
71236;SDS011;58984;51.960;5.582;2022-08-04T09:20:30;7.82;;;3.25;;
71236;SDS011;58984;51.960;5.582;2022-08-04T09:28:30;6.47;;;2.67;;
71236;SDS011;58984;51.960;5.582;2022-08-04T09:31:06;6.53;;;3.60;;
71236;SDS011;58984;51.960;5.582;2022-08-04T09:36:06;6.20;;;4.05;;
71236;SDS011;58984;51.960;5.582;2022-08-04T09:38:50;9.40;;;3.42;;
71236;SDS011;58984;51.960;5.582;2022-08-04T09:47:19;6.90;;;3.20;;
71236;SDS011;58984;51.960;5.582;2022-08-04T09:50:10;10.48;;;3.00;;
71236;SDS011;58984;51.960;5.582;2022-08-04T10:00:50;4.18;;;2.42;;
71236;SDS011;58984;51.960;5.582;2022-08-04T10:03:25;5.22;;;2.65;;
71236;SDS011;58984;51.960;5.582;2022-08-04T10:06:00;7.13;;;2.72;;
71236;SDS011;58984;51.960;5.582;2022-08-04T10:11:34;9.13;;;3.38;;
71236;SDS011;58984;51.960;5.582;2022-08-04T10:14:36;7.85;;;2.97;;
71236;SDS011;58984;51.960;5.582;2022-08-04T10:19:55;4.50;;;2.70;;
71236;SDS011;58984;51.960;5.582;2022-08-04T10:22:56;7.43;;;3.13;;
71236;SDS011;58984;51.960;5.582;2022-08-04T10:28:14;6.72;;;2.97;;
71236;SDS011;58984;51.960;5.582;2022-08-04T10:30:46;7.72;;;3.38;;
71236;SDS011;58984;51.960;5.582;2022-08-04T10:35:50;10.43;;;3.63;;
71236;SDS011;58984;51.960;5.582;2022-08-04T10:38:36;6.47;;;3.05;;
71236;SDS011;58984;51.960;5.582;2022-08-04T10:43:58;9.98;;;2.92;;
71236;SDS011;58984;51.960;5.582;2022-08-04T10:46:44;8.40;;;3.17;;
71236;SDS011;58984;51.960;5.582;2022-08-04T10:49:15;6.93;;;3.50;;
71236;SDS011;58984;51.960;5.582;2022-08-04T10:51:50;8.63;;;3.30;;
71236;SDS011;58984;51.960;5.582;2022-08-04T10:57:05;6.45;;;3.40;;
71236;SDS011;58984;51.960;5.582;2022-08-04T11:05:19;8.88;;;3.65;;
71236;SDS011;58984;51.960;5.582;2022-08-04T11:07:56;7.30;;;3.60;;
71236;SDS011;58984;51.960;5.582;2022-08-04T11:10:28;9.20;;;3.95;;
71236;SDS011;58984;51.960;5.582;2022-08-04T11:13:04;7.80;;;3.55;;
71236;SDS011;58984;51.960;5.582;2022-08-04T11:15:45;9.18;;;3.60;;
71236;SDS011;58984;51.960;5.582;2022-08-04T11:18:25;8.80;;;3.65;;
71236;SDS011;58984;51.960;5.582;2022-08-04T11:21:24;7.45;;;3.83;;
71236;SDS011;58984;51.960;5.582;2022-08-04T11:24:00;25.48;;;14.25;;
71236;SDS011;58984;51.960;5.582;2022-08-04T11:26:47;8.40;;;5.18;;
71236;SDS011;58984;51.960;5.582;2022-08-04T11:29:16;6.13;;;4.22;;
71236;SDS011;58984;51.960;5.582;2022-08-04T11:31:51;10.18;;;4.13;;
71236;SDS011;58984;51.960;5.582;2022-08-04T11:34:25;9.30;;;3.55;;
71236;SDS011;58984;51.960;5.582;2022-08-04T11:36:58;7.20;;;3.30;;
71236;SDS011;58984;51.960;5.582;2022-08-04T11:42:25;5.63;;;3.33;;
71236;SDS011;58984;51.960;5.582;2022-08-04T11:50:02;7.00;;;2.90;;
71236;SDS011;58984;51.960;5.582;2022-08-04T11:52:28;3.72;;;2.60;;
71236;SDS011;58984;51.960;5.582;2022-08-04T11:54:56;10.45;;;3.40;;
71236;SDS011;58984;51.960;5.582;2022-08-04T11:57:23;4.70;;;2.60;;
71236;SDS011;58984;51.960;5.582;2022-08-04T11:59:50;5.35;;;2.63;;
71236;SDS011;58984;51.960;5.582;2022-08-04T12:04:56;3.42;;;2.42;;
71236;SDS011;58984;51.960;5.582;2022-08-04T12:10:23;6.57;;;2.75;;
71236;SDS011;58984;51.960;5.582;2022-08-04T12:15:44;4.60;;;2.55;;
71236;SDS011;58984;51.960;5.582;2022-08-04T12:18:36;3.60;;;2.60;;
71236;SDS011;58984;51.960;5.582;2022-08-04T12:21:06;3.47;;;2.10;;
71236;SDS011;58984;51.960;5.582;2022-08-04T12:23:39;4.70;;;2.40;;
71236;SDS011;58984;51.960;5.582;2022-08-04T12:26:08;6.03;;;2.55;;
71236;SDS011;58984;51.960;5.582;2022-08-04T12:28:42;7.10;;;2.20;;
71236;SDS011;58984;51.960;5.582;2022-08-04T12:31:19;2.97;;;2.10;;
71236;SDS011;58984;51.960;5.582;2022-08-04T12:33:55;5.45;;;2.30;;
71236;SDS011;58984;51.960;5.582;2022-08-04T12:36:36;6.28;;;2.75;;
71236;SDS011;58984;51.960;5.582;2022-08-04T12:39:22;4.03;;;2.40;;
71236;SDS011;58984;51.960;5.582;2022-08-04T12:41:57;4.30;;;3.00;;
71236;SDS011;58984;51.960;5.582;2022-08-04T12:44:37;2.78;;;2.30;;
71236;SDS011;58984;51.960;5.582;2022-08-04T12:47:09;6.13;;;3.20;;
71236;SDS011;58984;51.960;5.582;2022-08-04T12:49:37;8.02;;;3.03;;
71236;SDS011;58984;51.960;5.582;2022-08-04T12:52:07;5.70;;;2.70;;
71236;SDS011;58984;51.960;5.582;2022-08-04T12:54:34;8.02;;;3.05;;
71236;SDS011;58984;51.960;5.582;2022-08-04T12:57:02;6.15;;;3.35;;
71236;SDS011;58984;51.960;5.582;2022-08-04T12:59:36;7.47;;;2.90;;
71236;SDS011;58984;51.960;5.582;2022-08-04T13:02:03;6.13;;;3.00;;
71236;SDS011;58984;51.960;5.582;2022-08-04T13:04:32;5.05;;;2.40;;
71236;SDS011;58984;51.960;5.582;2022-08-04T13:07:00;4.13;;;2.33;;
71236;SDS011;58984;51.960;5.582;2022-08-04T13:09:31;4.55;;;2.60;;
71236;SDS011;58984;51.960;5.582;2022-08-04T13:11:59;4.28;;;2.28;;
71236;SDS011;58984;51.960;5.582;2022-08-04T13:14:32;6.03;;;2.45;;
71236;SDS011;58984;51.960;5.582;2022-08-04T13:17:01;3.75;;;2.85;;
71236;SDS011;58984;51.960;5.582;2022-08-04T13:19:28;5.15;;;2.15;;
71236;SDS011;58984;51.960;5.582;2022-08-04T13:21:55;3.03;;;2.08;;
71236;SDS011;58984;51.960;5.582;2022-08-04T13:24:22;9.18;;;3.65;;
71236;SDS011;58984;51.960;5.582;2022-08-04T13:31:46;5.72;;;2.45;;
71236;SDS011;58984;51.960;5.582;2022-08-04T13:34:12;5.70;;;2.67;;
71236;SDS011;58984;51.960;5.582;2022-08-04T13:36:39;4.32;;;2.85;;
71236;SDS011;58984;51.960;5.582;2022-08-04T13:39:08;4.72;;;2.95;;
71236;SDS011;58984;51.960;5.582;2022-08-04T13:41:42;3.92;;;2.35;;
71236;SDS011;58984;51.960;5.582;2022-08-04T13:44:10;4.60;;;2.72;;
71236;SDS011;58984;51.960;5.582;2022-08-04T13:46:44;4.47;;;2.70;;
71236;SDS011;58984;51.960;5.582;2022-08-04T13:49:15;3.45;;;2.40;;
71236;SDS011;58984;51.960;5.582;2022-08-04T13:51:47;3.35;;;2.40;;
71236;SDS011;58984;51.960;5.582;2022-08-04T13:54:15;3.67;;;2.10;;
71236;SDS011;58984;51.960;5.582;2022-08-04T13:56:43;5.10;;;2.55;;
71236;SDS011;58984;51.960;5.582;2022-08-04T13:59:13;3.97;;;2.10;;
71236;SDS011;58984;51.960;5.582;2022-08-04T14:01:42;3.72;;;2.17;;
71236;SDS011;58984;51.960;5.582;2022-08-04T14:04:12;4.28;;;2.22;;
71236;SDS011;58984;51.960;5.582;2022-08-04T14:09:19;3.28;;;2.40;;
71236;SDS011;58984;51.960;5.582;2022-08-04T14:11:48;5.32;;;2.85;;
71236;SDS011;58984;51.960;5.582;2022-08-04T14:14:24;4.13;;;2.30;;
71236;SDS011;58984;51.960;5.582;2022-08-04T14:17:04;3.25;;;1.85;;
71236;SDS011;58984;51.960;5.582;2022-08-04T14:25:10;3.30;;;2.50;;
71236;SDS011;58984;51.960;5.582;2022-08-04T14:27:52;2.20;;;2.00;;
71236;SDS011;58984;51.960;5.582;2022-08-04T14:30:30;4.38;;;2.35;;
71236;SDS011;58984;51.960;5.582;2022-08-04T14:35:27;6.47;;;2.75;;
71236;SDS011;58984;51.960;5.582;2022-08-04T14:37:59;2.53;;;2.33;;
71236;SDS011;58984;51.960;5.582;2022-08-04T14:40:28;2.63;;;2.42;;
71236;SDS011;58984;51.960;5.582;2022-08-04T14:42:56;6.38;;;2.40;;
71236;SDS011;58984;51.960;5.582;2022-08-04T14:45:32;2.30;;;2.10;;
71236;SDS011;58984;51.960;5.582;2022-08-04T14:48:06;2.65;;;2.20;;
71236;SDS011;58984;51.960;5.582;2022-08-04T14:50:37;3.80;;;2.20;;
71236;SDS011;58984;51.960;5.582;2022-08-04T14:53:13;2.60;;;2.40;;
71236;SDS011;58984;51.960;5.582;2022-08-04T14:55:44;2.33;;;2.05;;
71236;SDS011;58984;51.960;5.582;2022-08-04T14:58:18;2.20;;;1.77;;
71236;SDS011;58984;51.960;5.582;2022-08-04T15:00:45;2.40;;;1.95;;
71236;SDS011;58984;51.960;5.582;2022-08-04T15:03:12;2.67;;;2.08;;
71236;SDS011;58984;51.960;5.582;2022-08-04T15:05:38;4.43;;;2.83;;
71236;SDS011;58984;51.960;5.582;2022-08-04T15:08:05;2.50;;;2.10;;
71236;SDS011;58984;51.960;5.582;2022-08-04T15:10:32;3.80;;;2.45;;
71236;SDS011;58984;51.960;5.582;2022-08-04T15:12:58;2.95;;;2.00;;
71236;SDS011;58984;51.960;5.582;2022-08-04T15:15:26;2.22;;;2.03;;
71236;SDS011;58984;51.960;5.582;2022-08-04T15:17:53;2.90;;;2.05;;
71236;SDS011;58984;51.960;5.582;2022-08-04T15:20:19;2.40;;;1.90;;
71236;SDS011;58984;51.960;5.582;2022-08-04T15:22:45;2.25;;;1.80;;
71236;SDS011;58984;51.960;5.582;2022-08-04T15:25:11;5.75;;;2.30;;
71236;SDS011;58984;51.960;5.582;2022-08-04T15:27:38;2.20;;;1.98;;
71236;SDS011;58984;51.960;5.582;2022-08-04T15:30:08;4.22;;;2.20;;
71236;SDS011;58984;51.960;5.582;2022-08-04T15:32:36;2.38;;;2.17;;
71236;SDS011;58984;51.960;5.582;2022-08-04T15:35:04;2.78;;;1.92;;
71236;SDS011;58984;51.960;5.582;2022-08-04T15:40:26;2.38;;;1.90;;
71236;SDS011;58984;51.960;5.582;2022-08-04T15:43:22;3.70;;;1.88;;
71236;SDS011;58984;51.960;5.582;2022-08-04T15:45:54;2.78;;;1.75;;
71236;SDS011;58984;51.960;5.582;2022-08-04T15:48:26;1.88;;;1.77;;
71236;SDS011;58984;51.960;5.582;2022-08-04T15:53:24;11.67;;;2.60;;
71236;SDS011;58984;51.960;5.582;2022-08-04T15:55:51;8.43;;;2.65;;
71236;SDS011;58984;51.960;5.582;2022-08-04T15:58:17;4.43;;;2.40;;
71236;SDS011;58984;51.960;5.582;2022-08-04T16:06:40;4.93;;;2.28;;
71236;SDS011;58984;51.960;5.582;2022-08-04T16:16:26;5.60;;;2.40;;
71236;SDS011;58984;51.960;5.582;2022-08-04T16:21:58;3.17;;;2.42;;
71236;SDS011;58984;51.960;5.582;2022-08-04T16:24:36;4.70;;;2.30;;
71236;SDS011;58984;51.960;5.582;2022-08-04T16:27:09;2.92;;;1.98;;
71236;SDS011;58984;51.960;5.582;2022-08-04T16:29:37;2.67;;;1.83;;
71236;SDS011;58984;51.960;5.582;2022-08-04T16:37:06;4.40;;;2.40;;
71236;SDS011;58984;51.960;5.582;2022-08-04T16:39:33;2.97;;;2.40;;
71236;SDS011;58984;51.960;5.582;2022-08-04T16:41:59;2.72;;;2.03;;
71236;SDS011;58984;51.960;5.582;2022-08-04T16:44:45;4.93;;;2.42;;
71236;SDS011;58984;51.960;5.582;2022-08-04T16:50:11;4.32;;;2.40;;
71236;SDS011;58984;51.960;5.582;2022-08-04T16:55:10;7.25;;;2.75;;
71236;SDS011;58984;51.960;5.582;2022-08-04T16:57:39;3.90;;;2.30;;
71236;SDS011;58984;51.960;5.582;2022-08-04T17:00:05;3.42;;;2.63;;
71236;SDS011;58984;51.960;5.582;2022-08-04T17:02:32;4.15;;;2.60;;
71236;SDS011;58984;51.960;5.582;2022-08-04T17:04:58;3.03;;;2.50;;
71236;SDS011;58984;51.960;5.582;2022-08-04T17:07:23;6.10;;;2.28;;
71236;SDS011;58984;51.960;5.582;2022-08-04T17:09:49;3.47;;;2.45;;
71236;SDS011;58984;51.960;5.582;2022-08-04T17:12:15;4.18;;;2.58;;
71236;SDS011;58984;51.960;5.582;2022-08-04T17:14:41;5.88;;;2.83;;
71236;SDS011;58984;51.960;5.582;2022-08-04T17:17:07;6.35;;;2.90;;
71236;SDS011;58984;51.960;5.582;2022-08-04T17:19:33;3.92;;;2.25;;
71236;SDS011;58984;51.960;5.582;2022-08-04T17:22:03;3.95;;;2.70;;
71236;SDS011;58984;51.960;5.582;2022-08-04T17:24:33;4.63;;;2.60;;
71236;SDS011;58984;51.960;5.582;2022-08-04T17:27:00;3.53;;;2.58;;
71236;SDS011;58984;51.960;5.582;2022-08-04T17:29:27;3.60;;;2.58;;
71236;SDS011;58984;51.960;5.582;2022-08-04T17:31:56;5.45;;;2.55;;
71236;SDS011;58984;51.960;5.582;2022-08-04T17:34:21;5.47;;;2.40;;
71236;SDS011;58984;51.960;5.582;2022-08-04T17:36:49;3.85;;;2.55;;
71236;SDS011;58984;51.960;5.582;2022-08-04T17:39:17;8.13;;;2.92;;
71236;SDS011;58984;51.960;5.582;2022-08-04T17:41:44;5.93;;;2.53;;
71236;SDS011;58984;51.960;5.582;2022-08-04T17:44:11;5.57;;;2.30;;
71236;SDS011;58984;51.960;5.582;2022-08-04T17:46:38;4.25;;;2.92;;
71236;SDS011;58984;51.960;5.582;2022-08-04T17:49:09;4.13;;;2.78;;
71236;SDS011;58984;51.960;5.582;2022-08-04T17:51:47;6.93;;;2.95;;
71236;SDS011;58984;51.960;5.582;2022-08-04T17:54:27;10.63;;;2.45;;
71236;SDS011;58984;51.960;5.582;2022-08-04T17:57:11;3.55;;;2.20;;
71236;SDS011;58984;51.960;5.582;2022-08-04T17:59:41;4.57;;;2.40;;
71236;SDS011;58984;51.960;5.582;2022-08-04T18:02:08;4.97;;;2.53;;
71236;SDS011;58984;51.960;5.582;2022-08-04T18:04:47;3.47;;;2.35;;
71236;SDS011;58984;51.960;5.582;2022-08-04T18:07:20;4.15;;;2.47;;
71236;SDS011;58984;51.960;5.582;2022-08-04T18:12:27;4.00;;;2.10;;
71236;SDS011;58984;51.960;5.582;2022-08-04T18:15:07;4.63;;;2.35;;
71236;SDS011;58984;51.960;5.582;2022-08-04T18:20:12;4.68;;;2.50;;
71236;SDS011;58984;51.960;5.582;2022-08-04T18:22:39;2.55;;;2.30;;
71236;SDS011;58984;51.960;5.582;2022-08-04T18:25:07;2.42;;;1.83;;
71236;SDS011;58984;51.960;5.582;2022-08-04T18:27:33;3.55;;;2.38;;
71236;SDS011;58984;51.960;5.582;2022-08-04T18:29:59;3.92;;;2.20;;
71236;SDS011;58984;51.960;5.582;2022-08-04T18:32:26;3.13;;;2.13;;
71236;SDS011;58984;51.960;5.582;2022-08-04T18:34:53;2.88;;;2.00;;
71236;SDS011;58984;51.960;5.582;2022-08-04T18:37:19;4.28;;;2.05;;
71236;SDS011;58984;51.960;5.582;2022-08-04T18:39:44;3.17;;;2.25;;
71236;SDS011;58984;51.960;5.582;2022-08-04T18:42:11;5.03;;;2.60;;
71236;SDS011;58984;51.960;5.582;2022-08-04T18:44:36;2.88;;;1.73;;
71236;SDS011;58984;51.960;5.582;2022-08-04T18:47:02;3.30;;;2.13;;
71236;SDS011;58984;51.960;5.582;2022-08-04T18:49:29;4.03;;;2.25;;
71236;SDS011;58984;51.960;5.582;2022-08-04T18:51:55;2.40;;;2.17;;
71236;SDS011;58984;51.960;5.582;2022-08-04T18:54:22;3.88;;;2.15;;
71236;SDS011;58984;51.960;5.582;2022-08-04T18:56:52;2.85;;;2.13;;
71236;SDS011;58984;51.960;5.582;2022-08-04T18:59:18;4.93;;;2.13;;
71236;SDS011;58984;51.960;5.582;2022-08-04T19:01:44;4.32;;;2.22;;
71236;SDS011;58984;51.960;5.582;2022-08-04T19:04:10;3.50;;;2.10;;
71236;SDS011;58984;51.960;5.582;2022-08-04T19:06:36;4.88;;;2.10;;
71236;SDS011;58984;51.960;5.582;2022-08-04T19:09:03;3.00;;;2.00;;
71236;SDS011;58984;51.960;5.582;2022-08-04T19:11:29;2.78;;;2.05;;
71236;SDS011;58984;51.960;5.582;2022-08-04T19:13:57;3.30;;;2.25;;
71236;SDS011;58984;51.960;5.582;2022-08-04T19:16:23;3.88;;;2.20;;
71236;SDS011;58984;51.960;5.582;2022-08-04T19:18:49;3.08;;;2.13;;
71236;SDS011;58984;51.960;5.582;2022-08-04T19:21:14;5.57;;;2.35;;
71236;SDS011;58984;51.960;5.582;2022-08-04T19:23:40;3.83;;;1.63;;
71236;SDS011;58984;51.960;5.582;2022-08-04T19:26:05;2.80;;;2.05;;
71236;SDS011;58984;51.960;5.582;2022-08-04T19:28:32;4.78;;;2.20;;
71236;SDS011;58984;51.960;5.582;2022-08-04T19:30:59;5.07;;;2.50;;